createdAt,value
2019-03-06T00:02:02.881Z,5.03
2019-03-06T00:04:32.098Z,8.60
2019-03-06T00:07:02.362Z,4.60
2019-03-06T00:09:31.735Z,5.77
2019-03-06T00:12:00.619Z,11.63
2019-03-06T00:14:29.543Z,5.70
2019-03-06T00:16:58.544Z,9.00
2019-03-06T00:19:27.732Z,7.33
2019-03-06T00:21:56.626Z,8.37
2019-03-06T00:24:25.530Z,8.10
2019-03-06T00:26:54.533Z,7.27
2019-03-06T00:29:23.578Z,8.63
2019-03-06T00:31:52.521Z,8.53
2019-03-06T00:34:21.715Z,6.53
2019-03-06T00:36:50.655Z,10.40
2019-03-06T00:39:19.662Z,9.57
2019-03-06T00:41:51.142Z,9.43
2019-03-06T00:44:20.144Z,8.60
2019-03-06T00:46:49.011Z,6.90
2019-03-06T00:49:17.925Z,8.07
2019-03-06T00:51:46.777Z,10.03
2019-03-06T00:54:15.695Z,11.87
2019-03-06T00:56:44.654Z,11.27
2019-03-06T00:59:13.680Z,9.53
2019-03-06T01:01:42.643Z,11.57
2019-03-06T01:04:11.815Z,8.50
2019-03-06T01:06:40.781Z,10.63
2019-03-06T01:09:10.439Z,11.33
2019-03-06T01:11:39.349Z,12.37
2019-03-06T01:14:08.341Z,10.43
2019-03-06T01:16:37.266Z,11.03
2019-03-06T01:19:06.287Z,11.77
2019-03-06T01:21:35.430Z,11.57
2019-03-06T01:24:04.641Z,13.33
2019-03-06T01:26:33.567Z,14.70
2019-03-06T01:29:02.402Z,11.27
2019-03-06T01:31:31.364Z,14.27
2019-03-06T01:34:31.374Z,15.10
2019-03-06T01:37:28.509Z,15.50
2019-03-06T01:40:16.557Z,13.97
2019-03-06T01:43:04.449Z,13.60
2019-03-06T01:45:33.450Z,12.53
2019-03-06T01:48:02.494Z,15.40
2019-03-06T01:50:31.702Z,17.53
2019-03-06T01:53:00.678Z,16.27
2019-03-06T01:55:29.778Z,16.13
2019-03-06T01:57:58.622Z,13.70
2019-03-06T02:00:27.618Z,14.93
2019-03-06T02:02:56.907Z,18.27
2019-03-06T02:05:26.213Z,15.63
2019-03-06T02:07:55.199Z,16.93
2019-03-06T02:10:24.458Z,15.00
2019-03-06T02:12:53.487Z,16.00
2019-03-06T02:15:22.905Z,13.53
2019-03-06T02:17:51.754Z,12.57
2019-03-06T02:20:22.809Z,15.53
2019-03-06T02:22:51.800Z,12.13
2019-03-06T02:25:20.843Z,16.33
2019-03-06T02:27:49.860Z,13.57
2019-03-06T02:30:20.459Z,14.03
2019-03-06T02:32:49.370Z,15.00
2019-03-06T02:35:18.542Z,18.87
2019-03-06T02:37:47.527Z,16.37
2019-03-06T02:40:16.422Z,13.27
2019-03-06T02:42:45.443Z,17.30
2019-03-06T02:45:15.346Z,18.37
2019-03-06T02:47:44.447Z,16.13
2019-03-06T02:50:14.019Z,13.43
2019-03-06T02:52:43.039Z,16.57
2019-03-06T02:55:12.381Z,14.80
2019-03-06T02:57:45.524Z,15.83
2019-03-06T03:00:34.614Z,16.50
2019-03-06T03:03:12.483Z,13.60
2019-03-06T03:05:55.755Z,14.50
2019-03-06T03:08:24.759Z,15.63
2019-03-06T03:10:53.762Z,14.20
2019-03-06T03:13:22.674Z,17.17
2019-03-06T03:15:51.598Z,21.70
2019-03-06T03:18:20.748Z,14.77
2019-03-06T03:20:49.892Z,18.60
2019-03-06T03:23:19.008Z,13.63
2019-03-06T03:25:47.937Z,15.27
2019-03-06T03:28:19.674Z,17.00
2019-03-06T03:30:47.615Z,19.87
2019-03-06T03:33:16.553Z,16.63
2019-03-06T03:35:45.485Z,16.67
2019-03-06T03:38:14.429Z,17.20
2019-03-06T03:40:43.243Z,19.83
2019-03-06T03:43:12.166Z,17.27
2019-03-06T03:45:41.168Z,16.80
2019-03-06T05:43:01.173Z,19.07
2019-03-06T05:45:55.572Z,18.50
2019-03-06T05:51:40.436Z,17.97
2019-03-06T05:58:43.849Z,18.87
2019-03-06T06:07:01.853Z,24.00
2019-03-06T06:09:33.636Z,25.77
2019-03-06T06:12:19.415Z,21.83
2019-03-06T06:21:32.395Z,21.27
2019-03-06T06:24:13.678Z,19.53
2019-03-06T06:31:02.448Z,20.80
2019-03-06T06:39:57.708Z,23.57
2019-03-06T06:42:27.023Z,26.53
2019-03-06T06:44:59.991Z,19.90
2019-03-06T06:47:54.956Z,20.80
2019-03-06T06:50:31.709Z,17.33
2019-03-06T06:53:55.803Z,17.80
2019-03-06T07:01:08.652Z,19.23
2019-03-06T07:08:24.204Z,22.70
2019-03-06T07:34:54.563Z,12.67
2019-03-06T07:57:19.150Z,8.40
2019-03-06T08:10:44.940Z,8.67
2019-03-06T08:20:57.914Z,5.60
2019-03-06T08:26:44.667Z,5.40
2019-03-06T08:29:41.608Z,5.83
2019-03-06T08:32:47.031Z,7.50
2019-03-06T08:36:23.609Z,6.03
2019-03-06T08:38:58.120Z,4.10
2019-03-06T08:42:05.667Z,7.03
2019-03-06T08:45:07.739Z,4.07
2019-03-06T08:51:46.361Z,4.37
2019-03-06T08:58:00.671Z,5.93
2019-03-06T09:14:59.806Z,11.70
2019-03-06T09:17:50.042Z,2.33
2019-03-06T09:20:46.937Z,7.50
2019-03-06T09:23:52.651Z,2.97
2019-03-06T09:28:45.458Z,5.03
2019-03-06T09:30:15.899Z,5.07
2019-03-06T09:37:13.892Z,2.57
2019-03-06T09:44:14.461Z,4.53
2019-03-06T09:50:00.460Z,6.17
2019-03-06T09:52:46.993Z,3.30
2019-03-06T09:55:26.513Z,5.33
2019-03-06T09:58:17.969Z,7.07
2019-03-06T10:01:02.417Z,3.90
2019-03-06T10:03:49.286Z,5.27
2019-03-06T10:06:29.074Z,5.50
2019-03-06T10:09:06.955Z,3.87
2019-03-06T10:11:50.511Z,4.13
2019-03-06T10:14:47.437Z,2.53
2019-03-06T10:17:30.430Z,5.27
2019-03-06T10:20:03.105Z,5.03
2019-03-06T10:22:31.994Z,4.63
2019-03-06T10:25:01.179Z,5.67
2019-03-06T10:27:30.161Z,4.53
2019-03-06T10:29:59.054Z,6.13
2019-03-06T10:32:27.876Z,4.73
2019-03-06T10:34:56.802Z,3.83
2019-03-06T10:37:25.796Z,6.17
2019-03-06T10:39:54.686Z,7.63
2019-03-06T10:42:23.918Z,6.67
2019-03-06T10:44:52.967Z,4.40
2019-03-06T10:47:22.082Z,6.23
2019-03-06T10:49:51.030Z,4.87
2019-03-06T10:52:20.117Z,4.50
2019-03-06T10:54:49.115Z,4.17
2019-03-06T10:57:18.206Z,5.10
2019-03-06T10:59:47.501Z,4.50
2019-03-06T11:02:16.555Z,4.20
2019-03-06T11:04:49.936Z,4.13
2019-03-06T11:07:20.332Z,6.20
2019-03-06T11:09:49.430Z,3.23
2019-03-06T11:12:18.533Z,4.63
2019-03-06T11:14:47.590Z,4.00
2019-03-06T11:17:16.770Z,3.30
2019-03-06T11:19:46.159Z,9.30
2019-03-06T11:22:15.258Z,6.97
2019-03-06T11:24:44.338Z,3.37
2019-03-06T11:27:13.333Z,7.40
2019-03-06T11:29:42.314Z,4.87
2019-03-06T11:32:11.850Z,6.07
2019-03-06T11:34:40.937Z,3.00
2019-03-06T11:37:09.961Z,4.43
2019-03-06T11:39:38.982Z,2.77
2019-03-06T11:42:08.730Z,7.50
2019-03-06T11:44:37.745Z,3.53
2019-03-06T11:47:06.806Z,4.70
2019-03-06T11:49:36.014Z,3.63
2019-03-06T11:52:05.019Z,6.67
2019-03-06T11:54:33.990Z,3.00
2019-03-06T11:57:03.051Z,5.90
2019-03-06T11:59:32.104Z,4.10
2019-03-06T12:02:01.111Z,4.67
2019-03-06T12:04:30.012Z,5.13
2019-03-06T12:06:59.332Z,3.10
2019-03-06T12:09:30.278Z,6.10
2019-03-06T12:11:59.814Z,4.03
2019-03-06T12:14:28.890Z,4.90
2019-03-06T12:16:58.003Z,4.20
2019-03-06T12:19:27.079Z,3.27
2019-03-06T12:21:56.321Z,5.03
2019-03-06T12:24:25.851Z,5.03
2019-03-06T12:26:54.699Z,7.23
2019-03-06T12:29:24.379Z,4.20
2019-03-06T12:31:53.353Z,3.20
2019-03-06T12:34:22.414Z,5.17
2019-03-06T12:36:51.704Z,4.70
2019-03-06T12:39:20.838Z,5.27
2019-03-06T12:41:50.861Z,6.30
2019-03-06T12:44:19.794Z,4.70
2019-03-06T12:46:51.318Z,6.63
2019-03-06T12:49:20.726Z,4.97
2019-03-06T12:51:54.389Z,4.37
2019-03-06T12:54:20.618Z,5.13
2019-03-06T12:56:49.676Z,5.67
2019-03-06T12:59:18.736Z,7.20
2019-03-06T13:01:47.818Z,6.90
2019-03-06T13:04:17.114Z,3.33
2019-03-06T13:06:46.096Z,6.03
2019-03-06T13:09:17.942Z,3.50
2019-03-06T13:11:47.226Z,4.07
2019-03-06T13:14:16.333Z,3.17
2019-03-06T13:16:45.378Z,3.23
2019-03-06T13:19:14.493Z,4.47
2019-03-06T13:21:43.418Z,3.90
2019-03-06T13:24:13.197Z,4.17
2019-03-06T13:26:42.171Z,6.40
2019-03-06T13:29:11.221Z,5.63
2019-03-06T13:31:40.273Z,5.60
2019-03-06T13:34:21.238Z,2.40
2019-03-06T13:36:50.329Z,6.37
2019-03-06T13:39:19.226Z,4.87
2019-03-06T13:41:48.151Z,4.83
2019-03-06T13:44:19.004Z,2.63
2019-03-06T13:46:48.171Z,4.27
2019-03-06T13:49:17.294Z,3.63
2019-03-06T13:51:46.344Z,5.07
2019-03-06T13:54:15.205Z,3.23
2019-03-06T13:56:44.380Z,2.90
2019-03-06T13:59:13.409Z,6.30
2019-03-06T14:01:42.434Z,4.67
2019-03-06T14:04:11.673Z,5.27
2019-03-06T14:06:40.649Z,6.97
2019-03-06T14:09:11.564Z,4.00
2019-03-06T14:11:40.891Z,3.33
2019-03-06T14:14:09.895Z,4.37
2019-03-06T14:16:39.095Z,3.67
2019-03-06T14:19:08.204Z,4.13
2019-03-06T14:21:37.124Z,5.40
2019-03-06T14:24:06.624Z,3.20
2019-03-06T14:26:36.032Z,4.47
2019-03-06T14:29:05.072Z,6.13
2019-03-06T14:31:34.102Z,4.40
2019-03-06T14:34:03.997Z,5.50
2019-03-06T14:36:33.091Z,6.63
2019-03-06T14:39:02.619Z,3.93
2019-03-06T14:41:31.732Z,6.30
2019-03-06T14:44:00.825Z,4.23
2019-03-06T14:46:29.661Z,4.47
2019-03-06T14:48:58.463Z,4.97
2019-03-06T14:51:27.535Z,4.13
2019-03-06T14:53:56.365Z,5.60
2019-03-06T14:56:25.539Z,3.90
2019-03-06T14:58:54.464Z,5.83
2019-03-06T15:01:23.542Z,5.90
2019-03-06T15:03:52.501Z,6.97
2019-03-06T15:06:21.533Z,5.37
2019-03-06T15:08:50.526Z,8.73
2019-03-06T15:11:19.765Z,3.30
2019-03-06T15:13:48.763Z,5.37
2019-03-06T15:16:18.102Z,4.03
2019-03-06T15:18:47.143Z,7.27
2019-03-06T15:21:16.013Z,7.10
2019-03-06T15:23:44.939Z,6.57
2019-03-06T15:26:14.519Z,6.73
2019-03-06T15:28:43.795Z,5.13
2019-03-06T15:31:13.037Z,7.47
2019-03-06T15:33:42.419Z,7.13
2019-03-06T15:36:11.770Z,4.93
2019-03-06T15:38:40.755Z,9.30
2019-03-06T15:41:09.905Z,5.87
2019-03-06T15:43:38.925Z,3.73
2019-03-06T15:46:08.009Z,6.00
2019-03-06T15:48:37.108Z,6.30
2019-03-06T15:51:06.231Z,5.20
2019-03-06T15:53:35.282Z,5.60
2019-03-06T15:56:05.737Z,4.30
2019-03-06T15:58:34.911Z,6.13
2019-03-06T16:01:04.150Z,7.43
2019-03-06T16:03:33.407Z,10.17
2019-03-06T16:06:02.594Z,6.53
2019-03-06T16:08:31.829Z,8.60
2019-03-06T16:11:01.145Z,4.53
2019-03-06T16:13:30.192Z,9.40
2019-03-06T16:15:59.084Z,4.37
2019-03-06T16:18:28.255Z,5.10
2019-03-06T16:20:57.361Z,6.57
2019-03-06T16:23:26.764Z,3.80
2019-03-06T16:25:55.830Z,8.77
2019-03-06T16:28:24.823Z,5.13
2019-03-06T16:30:53.831Z,7.73
2019-03-06T16:33:22.821Z,6.80
2019-03-06T16:35:51.653Z,5.10
2019-03-06T16:38:20.679Z,5.40
2019-03-06T16:40:49.715Z,7.57
2019-03-06T16:43:18.692Z,7.13
2019-03-06T16:45:47.719Z,7.00
2019-03-06T16:48:16.797Z,6.17
2019-03-06T16:50:46.216Z,4.90
2019-03-06T16:53:15.499Z,8.77
2019-03-06T16:55:44.839Z,5.37
2019-03-06T16:58:14.005Z,3.40
2019-03-06T17:00:43.307Z,4.80
2019-03-06T17:03:12.590Z,6.17
2019-03-06T17:05:41.695Z,8.77
2019-03-06T17:08:10.870Z,3.97
2019-03-06T17:10:39.926Z,6.53
2019-03-06T17:13:09.126Z,5.93
2019-03-06T17:15:38.055Z,5.67
2019-03-06T17:18:07.310Z,5.00
2019-03-06T17:20:36.449Z,8.00
2019-03-06T17:23:05.824Z,6.53
2019-03-06T17:25:34.976Z,6.77
2019-03-06T17:28:04.190Z,9.23
2019-03-06T17:30:33.356Z,5.83
2019-03-06T17:33:04.668Z,8.83
2019-03-06T17:35:34.176Z,6.93
2019-03-06T17:38:03.991Z,6.97
2019-03-06T17:40:33.165Z,7.13
2019-03-06T17:43:02.245Z,5.13
2019-03-06T17:45:31.397Z,7.33
2019-03-06T17:48:00.727Z,9.70
2019-03-06T17:50:29.915Z,7.37
2019-03-06T17:52:59.083Z,7.47
2019-03-06T17:55:28.231Z,4.90
2019-03-06T17:57:59.069Z,7.10
2019-03-06T18:00:47.871Z,6.20
2019-03-06T18:03:21.654Z,7.87
2019-03-06T18:05:50.626Z,4.90
2019-03-06T18:08:19.820Z,5.43
2019-03-06T18:10:48.898Z,5.30
2019-03-06T18:13:17.911Z,10.07
2019-03-06T18:15:46.987Z,6.43
2019-03-06T18:18:16.061Z,7.00
2019-03-06T18:20:45.339Z,4.73
2019-03-06T18:23:14.308Z,3.63
2019-03-06T18:25:43.378Z,6.67
2019-03-06T18:28:12.414Z,5.07
2019-03-06T18:30:41.597Z,6.13
2019-03-06T18:33:10.832Z,5.50
2019-03-06T18:35:39.860Z,6.77
2019-03-06T18:38:08.947Z,5.67
2019-03-06T18:40:38.317Z,4.53
2019-03-06T18:43:07.621Z,6.77
2019-03-06T18:45:36.812Z,2.73
2019-03-06T18:48:06.124Z,4.80
2019-03-06T18:50:35.197Z,5.90
2019-03-06T18:53:04.398Z,7.37
2019-03-06T18:55:33.551Z,4.43
2019-03-06T18:58:02.716Z,4.70
2019-03-06T19:00:33.580Z,4.03
2019-03-06T19:03:02.457Z,4.53
2019-03-06T19:05:31.458Z,9.40
2019-03-06T19:08:00.743Z,4.43
2019-03-06T19:10:29.639Z,4.43
2019-03-06T19:12:58.637Z,5.87
2019-03-06T19:15:27.733Z,5.23
2019-03-06T19:17:56.784Z,5.33
2019-03-06T19:20:25.771Z,7.60
2019-03-06T19:22:55.664Z,5.60
2019-03-06T19:25:25.334Z,4.27
2019-03-06T19:27:54.535Z,5.87
2019-03-06T19:30:24.382Z,4.57
2019-03-06T19:32:53.994Z,4.93
2019-03-06T19:35:23.224Z,6.53
2019-03-06T19:37:52.650Z,3.87
2019-03-06T19:40:22.108Z,6.73
2019-03-06T19:42:51.234Z,5.87
2019-03-06T19:45:20.630Z,9.23
2019-03-06T19:47:50.640Z,5.57
2019-03-06T19:50:21.063Z,7.10
2019-03-06T19:52:50.789Z,4.10
2019-03-06T19:55:20.571Z,3.93
2019-03-06T19:58:01.065Z,7.40
2019-03-06T20:00:30.735Z,7.93
2019-03-06T20:03:00.026Z,7.37
2019-03-06T20:05:34.671Z,4.43
2019-03-06T20:08:07.017Z,8.63
2019-03-06T20:10:36.183Z,6.57
2019-03-06T20:13:05.345Z,6.93
2019-03-06T20:15:34.451Z,6.60
2019-03-06T20:18:06.644Z,5.83
2019-03-06T20:20:35.766Z,5.30
2019-03-06T20:23:05.014Z,6.50
2019-03-06T20:25:34.101Z,4.40
2019-03-06T20:28:03.495Z,6.97
2019-03-06T20:30:32.587Z,6.43
2019-03-06T20:33:01.643Z,5.50
2019-03-06T20:35:30.974Z,6.33
2019-03-06T20:38:00.741Z,9.13
2019-03-06T20:40:29.801Z,6.40
2019-03-06T20:42:58.835Z,10.90
2019-03-06T20:45:27.831Z,4.20
2019-03-06T20:47:56.917Z,6.10
2019-03-06T20:50:26.288Z,8.17
2019-03-06T20:52:56.318Z,5.77
2019-03-06T20:55:25.379Z,6.80
2019-03-06T20:57:54.622Z,6.63
2019-03-06T21:00:24.489Z,7.77
2019-03-06T21:02:53.706Z,6.30
2019-03-06T21:05:25.436Z,4.87
2019-03-06T21:07:54.490Z,5.97
2019-03-06T21:10:23.743Z,3.77
2019-03-06T21:12:53.394Z,6.90
2019-03-06T21:15:22.439Z,7.37
2019-03-06T21:17:51.684Z,8.00
2019-03-06T21:20:20.828Z,9.80
2019-03-06T21:22:49.965Z,4.17
2019-03-06T21:25:19.103Z,9.30
2019-03-06T21:27:48.473Z,7.30
2019-03-06T21:30:24.183Z,4.77
2019-03-06T21:32:53.610Z,6.37
2019-03-06T21:35:23.029Z,6.13
2019-03-06T21:37:52.270Z,7.70
2019-03-06T21:40:21.335Z,5.53
2019-03-06T21:42:51.138Z,8.80
2019-03-06T21:45:20.059Z,7.20
2019-03-06T21:47:49.821Z,6.03
2019-03-06T21:54:55.563Z,5.10
2019-03-06T21:58:11.749Z,6.00
2019-03-06T22:01:04.853Z,6.07
2019-03-06T22:08:07.865Z,7.67
2019-03-06T22:29:18.467Z,4.33
2019-03-06T22:48:18.644Z,7.60
2019-03-06T23:01:40.247Z,7.57
